sensor_id;sensor_type;location;lat;lon;timestamp;P1;durP1;ratioP1;P2;durP2;ratioP2
59978;SDS011;45839;44.882;20.650;2023-05-10T00:02:11;6.50;;;3.63;;
59978;SDS011;45839;44.882;20.650;2023-05-10T00:04:37;5.70;;;3.50;;
59978;SDS011;45839;44.882;20.650;2023-05-10T00:07:03;7.45;;;4.00;;
59978;SDS011;45839;44.882;20.650;2023-05-10T00:09:29;5.90;;;3.80;;
59978;SDS011;45839;44.882;20.650;2023-05-10T00:11:55;6.05;;;3.47;;
59978;SDS011;45839;44.882;20.650;2023-05-10T00:14:23;5.13;;;3.15;;
59978;SDS011;45839;44.882;20.650;2023-05-10T00:16:49;5.38;;;2.85;;
59978;SDS011;45839;44.882;20.650;2023-05-10T00:19:15;5.32;;;3.08;;
59978;SDS011;45839;44.882;20.650;2023-05-10T00:21:41;5.68;;;3.20;;
59978;SDS011;45839;44.882;20.650;2023-05-10T00:24:07;5.30;;;3.30;;
59978;SDS011;45839;44.882;20.650;2023-05-10T00:26:33;5.15;;;2.88;;
59978;SDS011;45839;44.882;20.650;2023-05-10T00:28:59;4.78;;;3.00;;
59978;SDS011;45839;44.882;20.650;2023-05-10T00:31:25;5.07;;;3.17;;
59978;SDS011;45839;44.882;20.650;2023-05-10T00:33:51;6.13;;;3.45;;
59978;SDS011;45839;44.882;20.650;2023-05-10T00:36:17;5.13;;;3.03;;
59978;SDS011;45839;44.882;20.650;2023-05-10T00:38:43;5.05;;;3.30;;
59978;SDS011;45839;44.882;20.650;2023-05-10T00:41:09;5.25;;;3.33;;
59978;SDS011;45839;44.882;20.650;2023-05-10T00:43:35;5.60;;;3.20;;
59978;SDS011;45839;44.882;20.650;2023-05-10T00:46:02;5.63;;;2.95;;
59978;SDS011;45839;44.882;20.650;2023-05-10T00:48:28;6.70;;;3.25;;
59978;SDS011;45839;44.882;20.650;2023-05-10T00:50:54;5.70;;;3.50;;
59978;SDS011;45839;44.882;20.650;2023-05-10T00:53:21;5.75;;;3.40;;
59978;SDS011;45839;44.882;20.650;2023-05-10T00:55:47;6.07;;;3.33;;
59978;SDS011;45839;44.882;20.650;2023-05-10T00:58:13;5.20;;;3.35;;
59978;SDS011;45839;44.882;20.650;2023-05-10T01:00:41;5.10;;;3.20;;
59978;SDS011;45839;44.882;20.650;2023-05-10T01:03:08;6.03;;;3.58;;
59978;SDS011;45839;44.882;20.650;2023-05-10T01:05:35;5.95;;;3.22;;
59978;SDS011;45839;44.882;20.650;2023-05-10T01:08:01;5.93;;;3.78;;
59978;SDS011;45839;44.882;20.650;2023-05-10T01:10:27;5.38;;;3.72;;
59978;SDS011;45839;44.882;20.650;2023-05-10T01:12:53;5.97;;;3.80;;
59978;SDS011;45839;44.882;20.650;2023-05-10T01:15:20;9.13;;;4.00;;
59978;SDS011;45839;44.882;20.650;2023-05-10T01:17:46;6.55;;;4.03;;
59978;SDS011;45839;44.882;20.650;2023-05-10T01:20:12;6.03;;;3.40;;
59978;SDS011;45839;44.882;20.650;2023-05-10T01:32:53;6.00;;;3.60;;
59978;SDS011;45839;44.882;20.650;2023-05-10T01:37:50;5.57;;;3.85;;
59978;SDS011;45839;44.882;20.650;2023-05-10T01:40:32;8.93;;;4.20;;
59978;SDS011;45839;44.882;20.650;2023-05-10T01:43:02;6.20;;;3.83;;
59978;SDS011;45839;44.882;20.650;2023-05-10T01:45:30;6.03;;;3.78;;
59978;SDS011;45839;44.882;20.650;2023-05-10T01:47:58;5.88;;;4.00;;
59978;SDS011;45839;44.882;20.650;2023-05-10T01:50:29;7.05;;;4.40;;
59978;SDS011;45839;44.882;20.650;2023-05-10T01:52:57;6.28;;;3.72;;
59978;SDS011;45839;44.882;20.650;2023-05-10T01:55:24;6.45;;;4.03;;
59978;SDS011;45839;44.882;20.650;2023-05-10T01:57:52;6.80;;;3.92;;
59978;SDS011;45839;44.882;20.650;2023-05-10T02:00:21;5.88;;;3.33;;
59978;SDS011;45839;44.882;20.650;2023-05-10T02:02:48;6.78;;;3.40;;
59978;SDS011;45839;44.882;20.650;2023-05-10T02:05:15;5.65;;;3.35;;
59978;SDS011;45839;44.882;20.650;2023-05-10T02:07:42;6.05;;;3.80;;
59978;SDS011;45839;44.882;20.650;2023-05-10T02:10:09;6.53;;;3.50;;
59978;SDS011;45839;44.882;20.650;2023-05-10T02:12:36;5.47;;;3.80;;
59978;SDS011;45839;44.882;20.650;2023-05-10T02:15:02;6.05;;;3.92;;
59978;SDS011;45839;44.882;20.650;2023-05-10T02:17:30;7.97;;;3.90;;
59978;SDS011;45839;44.882;20.650;2023-05-10T02:19:57;5.90;;;3.70;;
59978;SDS011;45839;44.882;20.650;2023-05-10T02:22:24;5.78;;;3.10;;
59978;SDS011;45839;44.882;20.650;2023-05-10T02:24:51;5.40;;;3.35;;
59978;SDS011;45839;44.882;20.650;2023-05-10T02:27:17;6.28;;;3.67;;
59978;SDS011;45839;44.882;20.650;2023-05-10T02:29:45;6.57;;;3.83;;
59978;SDS011;45839;44.882;20.650;2023-05-10T02:32:12;5.65;;;3.40;;
59978;SDS011;45839;44.882;20.650;2023-05-10T02:34:39;7.13;;;3.70;;
59978;SDS011;45839;44.882;20.650;2023-05-10T02:37:05;6.80;;;3.38;;
59978;SDS011;45839;44.882;20.650;2023-05-10T02:39:32;6.97;;;3.40;;
59978;SDS011;45839;44.882;20.650;2023-05-10T02:41:58;5.88;;;3.75;;
59978;SDS011;45839;44.882;20.650;2023-05-10T02:44:25;5.20;;;3.38;;
59978;SDS011;45839;44.882;20.650;2023-05-10T02:46:52;5.72;;;3.33;;
59978;SDS011;45839;44.882;20.650;2023-05-10T02:49:20;6.65;;;3.92;;
59978;SDS011;45839;44.882;20.650;2023-05-10T02:51:48;6.43;;;3.83;;
59978;SDS011;45839;44.882;20.650;2023-05-10T02:54:18;6.03;;;3.55;;
59978;SDS011;45839;44.882;20.650;2023-05-10T02:56:47;5.68;;;3.67;;
59978;SDS011;45839;44.882;20.650;2023-05-10T02:59:13;5.88;;;3.50;;
59978;SDS011;45839;44.882;20.650;2023-05-10T03:01:39;7.22;;;3.40;;
59978;SDS011;45839;44.882;20.650;2023-05-10T03:04:05;6.22;;;3.55;;
59978;SDS011;45839;44.882;20.650;2023-05-10T03:06:32;7.30;;;4.15;;
59978;SDS011;45839;44.882;20.650;2023-05-10T03:08:58;7.25;;;3.58;;
59978;SDS011;45839;44.882;20.650;2023-05-10T03:14:21;6.68;;;4.13;;
59978;SDS011;45839;44.882;20.650;2023-05-10T03:16:52;5.80;;;3.60;;
59978;SDS011;45839;44.882;20.650;2023-05-10T03:19:24;6.20;;;4.05;;
59978;SDS011;45839;44.882;20.650;2023-05-10T03:21:52;6.85;;;4.28;;
59978;SDS011;45839;44.882;20.650;2023-05-10T03:24:20;7.22;;;4.97;;
59978;SDS011;45839;44.882;20.650;2023-05-10T03:26:47;6.63;;;4.20;;
59978;SDS011;45839;44.882;20.650;2023-05-10T03:29:14;6.00;;;3.97;;
59978;SDS011;45839;44.882;20.650;2023-05-10T03:31:40;9.00;;;3.67;;
59978;SDS011;45839;44.882;20.650;2023-05-10T03:34:06;6.20;;;3.78;;
59978;SDS011;45839;44.882;20.650;2023-05-10T03:36:32;6.03;;;4.00;;
59978;SDS011;45839;44.882;20.650;2023-05-10T03:38:59;7.18;;;3.80;;
59978;SDS011;45839;44.882;20.650;2023-05-10T03:41:25;5.72;;;3.88;;
59978;SDS011;45839;44.882;20.650;2023-05-10T03:43:51;7.18;;;4.15;;
59978;SDS011;45839;44.882;20.650;2023-05-10T03:46:17;5.40;;;3.80;;
59978;SDS011;45839;44.882;20.650;2023-05-10T03:48:43;7.40;;;4.30;;
59978;SDS011;45839;44.882;20.650;2023-05-10T03:51:09;5.68;;;3.90;;
59978;SDS011;45839;44.882;20.650;2023-05-10T03:53:35;7.50;;;3.65;;
59978;SDS011;45839;44.882;20.650;2023-05-10T03:56:01;6.63;;;4.25;;
59978;SDS011;45839;44.882;20.650;2023-05-10T03:58:27;7.80;;;4.32;;
59978;SDS011;45839;44.882;20.650;2023-05-10T04:00:53;7.93;;;4.30;;
59978;SDS011;45839;44.882;20.650;2023-05-10T04:03:20;6.80;;;3.85;;
59978;SDS011;45839;44.882;20.650;2023-05-10T04:05:46;6.53;;;4.07;;
59978;SDS011;45839;44.882;20.650;2023-05-10T04:08:12;6.40;;;3.97;;
59978;SDS011;45839;44.882;20.650;2023-05-10T04:10:39;5.47;;;3.72;;
59978;SDS011;45839;44.882;20.650;2023-05-10T04:13:05;7.80;;;4.00;;
59978;SDS011;45839;44.882;20.650;2023-05-10T04:15:31;7.55;;;4.13;;
59978;SDS011;45839;44.882;20.650;2023-05-10T04:17:57;7.85;;;4.22;;
59978;SDS011;45839;44.882;20.650;2023-05-10T04:20:23;5.25;;;3.47;;
59978;SDS011;45839;44.882;20.650;2023-05-10T04:22:50;7.38;;;4.22;;
59978;SDS011;45839;44.882;20.650;2023-05-10T04:25:16;5.80;;;3.88;;
59978;SDS011;45839;44.882;20.650;2023-05-10T04:27:42;7.88;;;4.32;;
59978;SDS011;45839;44.882;20.650;2023-05-10T04:30:08;7.20;;;5.05;;
59978;SDS011;45839;44.882;20.650;2023-05-10T04:32:34;6.95;;;4.22;;
59978;SDS011;45839;44.882;20.650;2023-05-10T04:35:01;10.90;;;7.13;;
59978;SDS011;45839;44.882;20.650;2023-05-10T04:37:28;6.85;;;4.90;;
59978;SDS011;45839;44.882;20.650;2023-05-10T04:39:54;8.07;;;4.90;;
59978;SDS011;45839;44.882;20.650;2023-05-10T04:42:20;8.73;;;5.32;;
59978;SDS011;45839;44.882;20.650;2023-05-10T04:44:46;7.38;;;4.70;;
59978;SDS011;45839;44.882;20.650;2023-05-10T04:47:12;9.35;;;5.45;;
59978;SDS011;45839;44.882;20.650;2023-05-10T04:49:38;6.80;;;4.43;;
59978;SDS011;45839;44.882;20.650;2023-05-10T04:52:04;10.82;;;7.72;;
59978;SDS011;45839;44.882;20.650;2023-05-10T04:54:30;11.57;;;8.55;;
59978;SDS011;45839;44.882;20.650;2023-05-10T04:56:56;36.38;;;29.00;;
59978;SDS011;45839;44.882;20.650;2023-05-10T04:59:22;8.95;;;6.03;;
59978;SDS011;45839;44.882;20.650;2023-05-10T05:01:48;21.88;;;16.42;;
59978;SDS011;45839;44.882;20.650;2023-05-10T05:04:14;70.05;;;49.13;;
59978;SDS011;45839;44.882;20.650;2023-05-10T05:06:40;46.90;;;35.97;;
59978;SDS011;45839;44.882;20.650;2023-05-10T05:09:06;27.70;;;20.85;;
59978;SDS011;45839;44.882;20.650;2023-05-10T05:11:32;12.73;;;9.48;;
59978;SDS011;45839;44.882;20.650;2023-05-10T05:13:59;24.98;;;17.92;;
59978;SDS011;45839;44.882;20.650;2023-05-10T05:16:25;29.98;;;23.52;;
59978;SDS011;45839;44.882;20.650;2023-05-10T05:18:51;13.45;;;8.93;;
59978;SDS011;45839;44.882;20.650;2023-05-10T05:21:17;11.05;;;6.97;;
59978;SDS011;45839;44.882;20.650;2023-05-10T05:23:44;10.85;;;6.50;;
59978;SDS011;45839;44.882;20.650;2023-05-10T05:26:10;15.43;;;11.07;;
59978;SDS011;45839;44.882;20.650;2023-05-10T05:28:36;9.98;;;7.03;;
59978;SDS011;45839;44.882;20.650;2023-05-10T05:31:03;7.60;;;4.80;;
59978;SDS011;45839;44.882;20.650;2023-05-10T05:33:29;11.80;;;8.52;;
59978;SDS011;45839;44.882;20.650;2023-05-10T05:35:55;12.23;;;6.43;;
59978;SDS011;45839;44.882;20.650;2023-05-10T05:38:21;14.20;;;9.82;;
59978;SDS011;45839;44.882;20.650;2023-05-10T05:40:48;13.75;;;9.75;;
59978;SDS011;45839;44.882;20.650;2023-05-10T05:43:14;15.20;;;9.65;;
59978;SDS011;45839;44.882;20.650;2023-05-10T05:45:40;15.20;;;8.00;;
59978;SDS011;45839;44.882;20.650;2023-05-10T05:48:06;11.10;;;6.90;;
59978;SDS011;45839;44.882;20.650;2023-05-10T05:50:32;8.10;;;5.50;;
59978;SDS011;45839;44.882;20.650;2023-05-10T05:52:58;8.75;;;5.80;;
59978;SDS011;45839;44.882;20.650;2023-05-10T05:55:25;9.65;;;6.78;;
59978;SDS011;45839;44.882;20.650;2023-05-10T05:57:51;19.85;;;12.00;;
59978;SDS011;45839;44.882;20.650;2023-05-10T06:00:17;18.05;;;14.38;;
59978;SDS011;45839;44.882;20.650;2023-05-10T06:02:43;10.48;;;6.65;;
59978;SDS011;45839;44.882;20.650;2023-05-10T06:05:09;9.98;;;7.07;;
59978;SDS011;45839;44.882;20.650;2023-05-10T06:07:35;9.90;;;6.53;;
59978;SDS011;45839;44.882;20.650;2023-05-10T06:10:01;12.90;;;9.13;;
59978;SDS011;45839;44.882;20.650;2023-05-10T06:12:27;8.25;;;5.40;;
59978;SDS011;45839;44.882;20.650;2023-05-10T06:14:54;8.68;;;4.28;;
59978;SDS011;45839;44.882;20.650;2023-05-10T06:17:20;8.05;;;4.32;;
59978;SDS011;45839;44.882;20.650;2023-05-10T06:19:46;8.55;;;5.40;;
59978;SDS011;45839;44.882;20.650;2023-05-10T06:22:12;7.75;;;5.32;;
59978;SDS011;45839;44.882;20.650;2023-05-10T06:24:38;11.48;;;7.93;;
59978;SDS011;45839;44.882;20.650;2023-05-10T06:27:05;9.82;;;7.53;;
59978;SDS011;45839;44.882;20.650;2023-05-10T06:29:31;8.65;;;4.80;;
59978;SDS011;45839;44.882;20.650;2023-05-10T06:31:58;8.52;;;4.90;;
59978;SDS011;45839;44.882;20.650;2023-05-10T06:34:24;11.73;;;6.85;;
59978;SDS011;45839;44.882;20.650;2023-05-10T06:36:50;12.88;;;8.63;;
59978;SDS011;45839;44.882;20.650;2023-05-10T06:39:16;12.23;;;6.97;;
59978;SDS011;45839;44.882;20.650;2023-05-10T06:41:42;6.68;;;4.88;;
59978;SDS011;45839;44.882;20.650;2023-05-10T06:44:08;12.02;;;6.03;;
59978;SDS011;45839;44.882;20.650;2023-05-10T06:46:35;12.05;;;6.63;;
59978;SDS011;45839;44.882;20.650;2023-05-10T06:49:01;16.65;;;7.65;;
59978;SDS011;45839;44.882;20.650;2023-05-10T06:51:27;22.70;;;11.32;;
59978;SDS011;45839;44.882;20.650;2023-05-10T06:53:53;16.48;;;8.27;;
59978;SDS011;45839;44.882;20.650;2023-05-10T06:56:19;12.77;;;8.05;;
59978;SDS011;45839;44.882;20.650;2023-05-10T06:58:47;17.38;;;10.60;;
59978;SDS011;45839;44.882;20.650;2023-05-10T07:01:13;11.95;;;8.90;;
59978;SDS011;45839;44.882;20.650;2023-05-10T07:03:39;12.15;;;8.90;;
59978;SDS011;45839;44.882;20.650;2023-05-10T07:06:05;9.65;;;7.25;;
59978;SDS011;45839;44.882;20.650;2023-05-10T07:08:32;11.70;;;8.10;;
59978;SDS011;45839;44.882;20.650;2023-05-10T07:11:02;11.48;;;6.65;;
59978;SDS011;45839;44.882;20.650;2023-05-10T07:13:29;10.75;;;7.07;;
59978;SDS011;45839;44.882;20.650;2023-05-10T07:15:56;9.05;;;6.10;;
59978;SDS011;45839;44.882;20.650;2023-05-10T07:18:22;10.95;;;7.50;;
59978;SDS011;45839;44.882;20.650;2023-05-10T07:20:48;14.77;;;10.32;;
59978;SDS011;45839;44.882;20.650;2023-05-10T07:23:14;22.20;;;10.30;;
59978;SDS011;45839;44.882;20.650;2023-05-10T07:25:44;12.55;;;6.35;;
59978;SDS011;45839;44.882;20.650;2023-05-10T07:28:10;16.63;;;9.75;;
59978;SDS011;45839;44.882;20.650;2023-05-10T07:30:36;14.07;;;10.65;;
59978;SDS011;45839;44.882;20.650;2023-05-10T07:33:02;13.40;;;6.43;;
59978;SDS011;45839;44.882;20.650;2023-05-10T07:35:28;10.98;;;6.72;;
59978;SDS011;45839;44.882;20.650;2023-05-10T07:37:54;11.38;;;6.65;;
59978;SDS011;45839;44.882;20.650;2023-05-10T07:40:20;11.45;;;7.88;;
59978;SDS011;45839;44.882;20.650;2023-05-10T07:42:46;20.25;;;16.17;;
59978;SDS011;45839;44.882;20.650;2023-05-10T07:45:12;9.30;;;6.22;;
59978;SDS011;45839;44.882;20.650;2023-05-10T07:47:38;10.32;;;7.38;;
59978;SDS011;45839;44.882;20.650;2023-05-10T07:50:04;10.70;;;7.65;;
59978;SDS011;45839;44.882;20.650;2023-05-10T07:52:30;13.82;;;9.43;;
59978;SDS011;45839;44.882;20.650;2023-05-10T07:54:57;7.28;;;4.78;;
59978;SDS011;45839;44.882;20.650;2023-05-10T07:57:23;10.00;;;5.18;;
59978;SDS011;45839;44.882;20.650;2023-05-10T07:59:49;11.68;;;7.10;;
59978;SDS011;45839;44.882;20.650;2023-05-10T08:02:15;11.48;;;6.47;;
59978;SDS011;45839;44.882;20.650;2023-05-10T08:04:41;15.00;;;7.13;;
59978;SDS011;45839;44.882;20.650;2023-05-10T08:07:07;15.60;;;6.63;;
59978;SDS011;45839;44.882;20.650;2023-05-10T08:09:33;24.83;;;6.70;;
59978;SDS011;45839;44.882;20.650;2023-05-10T08:11:59;21.38;;;8.25;;
59978;SDS011;45839;44.882;20.650;2023-05-10T08:14:26;38.13;;;11.73;;
59978;SDS011;45839;44.882;20.650;2023-05-10T08:16:52;20.05;;;9.60;;
59978;SDS011;45839;44.882;20.650;2023-05-10T08:19:18;21.73;;;11.90;;
59978;SDS011;45839;44.882;20.650;2023-05-10T08:21:46;25.35;;;9.00;;
59978;SDS011;45839;44.882;20.650;2023-05-10T08:24:12;21.05;;;9.77;;
59978;SDS011;45839;44.882;20.650;2023-05-10T08:26:38;18.33;;;5.78;;
59978;SDS011;45839;44.882;20.650;2023-05-10T08:29:05;30.45;;;9.50;;
59978;SDS011;45839;44.882;20.650;2023-05-10T08:31:31;17.63;;;5.82;;
59978;SDS011;45839;44.882;20.650;2023-05-10T08:33:57;29.88;;;8.30;;
59978;SDS011;45839;44.882;20.650;2023-05-10T08:36:23;24.35;;;12.55;;
59978;SDS011;45839;44.882;20.650;2023-05-10T08:38:52;28.02;;;12.88;;
59978;SDS011;45839;44.882;20.650;2023-05-10T08:41:21;24.77;;;7.78;;
59978;SDS011;45839;44.882;20.650;2023-05-10T08:43:50;22.88;;;7.43;;
59978;SDS011;45839;44.882;20.650;2023-05-10T08:46:17;8.80;;;4.53;;
59978;SDS011;45839;44.882;20.650;2023-05-10T08:48:44;22.48;;;6.65;;
59978;SDS011;45839;44.882;20.650;2023-05-10T08:51:12;14.27;;;5.10;;
59978;SDS011;45839;44.882;20.650;2023-05-10T08:53:39;13.25;;;5.22;;
59978;SDS011;45839;44.882;20.650;2023-05-10T08:56:05;9.32;;;4.30;;
59978;SDS011;45839;44.882;20.650;2023-05-10T08:58:31;12.90;;;4.20;;
59978;SDS011;45839;44.882;20.650;2023-05-10T09:00:58;9.15;;;4.55;;
59978;SDS011;45839;44.882;20.650;2023-05-10T09:03:25;20.08;;;5.07;;
59978;SDS011;45839;44.882;20.650;2023-05-10T09:05:51;12.15;;;5.30;;
59978;SDS011;45839;44.882;20.650;2023-05-10T09:08:17;14.93;;;8.57;;
59978;SDS011;45839;44.882;20.650;2023-05-10T09:10:44;13.05;;;6.88;;
59978;SDS011;45839;44.882;20.650;2023-05-10T09:13:12;12.55;;;7.35;;
59978;SDS011;45839;44.882;20.650;2023-05-10T09:15:40;8.85;;;4.03;;
59978;SDS011;45839;44.882;20.650;2023-05-10T09:18:06;8.02;;;4.05;;
59978;SDS011;45839;44.882;20.650;2023-05-10T09:20:32;10.35;;;5.53;;
59978;SDS011;45839;44.882;20.650;2023-05-10T09:22:58;11.15;;;5.47;;
59978;SDS011;45839;44.882;20.650;2023-05-10T09:25:24;16.17;;;10.15;;
59978;SDS011;45839;44.882;20.650;2023-05-10T09:27:50;17.45;;;7.15;;
59978;SDS011;45839;44.882;20.650;2023-05-10T09:30:17;6.80;;;3.95;;
59978;SDS011;45839;44.882;20.650;2023-05-10T09:32:44;8.98;;;3.97;;
59978;SDS011;45839;44.882;20.650;2023-05-10T09:35:11;9.65;;;5.20;;
59978;SDS011;45839;44.882;20.650;2023-05-10T09:37:41;8.57;;;4.43;;
59978;SDS011;45839;44.882;20.650;2023-05-10T09:40:12;7.72;;;5.10;;
59978;SDS011;45839;44.882;20.650;2023-05-10T09:42:38;17.42;;;11.57;;
59978;SDS011;45839;44.882;20.650;2023-05-10T09:45:05;6.28;;;3.58;;
59978;SDS011;45839;44.882;20.650;2023-05-10T09:47:32;12.02;;;7.55;;
59978;SDS011;45839;44.882;20.650;2023-05-10T09:49:58;10.52;;;4.60;;
59978;SDS011;45839;44.882;20.650;2023-05-10T09:52:45;13.00;;;8.40;;
59978;SDS011;45839;44.882;20.650;2023-05-10T09:55:11;18.27;;;12.93;;
59978;SDS011;45839;44.882;20.650;2023-05-10T09:57:37;12.23;;;7.15;;
59978;SDS011;45839;44.882;20.650;2023-05-10T10:00:05;9.80;;;4.75;;
59978;SDS011;45839;44.882;20.650;2023-05-10T10:02:31;8.80;;;5.47;;
59978;SDS011;45839;44.882;20.650;2023-05-10T10:04:58;10.00;;;6.13;;
59978;SDS011;45839;44.882;20.650;2023-05-10T10:07:26;17.83;;;6.93;;
59978;SDS011;45839;44.882;20.650;2023-05-10T10:09:52;7.05;;;3.00;;
59978;SDS011;45839;44.882;20.650;2023-05-10T10:12:18;12.32;;;7.07;;
59978;SDS011;45839;44.882;20.650;2023-05-10T10:14:48;15.63;;;5.63;;
59978;SDS011;45839;44.882;20.650;2023-05-10T10:17:15;11.65;;;5.43;;
59978;SDS011;45839;44.882;20.650;2023-05-10T10:19:41;8.68;;;3.60;;
59978;SDS011;45839;44.882;20.650;2023-05-10T10:22:07;6.15;;;3.10;;
59978;SDS011;45839;44.882;20.650;2023-05-10T10:24:36;8.05;;;4.18;;
59978;SDS011;45839;44.882;20.650;2023-05-10T10:27:06;11.52;;;5.30;;
59978;SDS011;45839;44.882;20.650;2023-05-10T10:34:30;7.53;;;3.00;;
59978;SDS011;45839;44.882;20.650;2023-05-10T10:36:57;7.55;;;3.33;;
59978;SDS011;45839;44.882;20.650;2023-05-10T10:39:23;7.88;;;4.88;;
59978;SDS011;45839;44.882;20.650;2023-05-10T10:41:51;9.00;;;3.72;;
59978;SDS011;45839;44.882;20.650;2023-05-10T10:49:26;7.97;;;3.38;;
59978;SDS011;45839;44.882;20.650;2023-05-10T10:54:40;5.88;;;3.13;;
59978;SDS011;45839;44.882;20.650;2023-05-10T10:57:10;11.65;;;3.83;;
59978;SDS011;45839;44.882;20.650;2023-05-10T10:59:41;5.88;;;3.55;;
59978;SDS011;45839;44.882;20.650;2023-05-10T11:04:56;7.97;;;3.80;;
59978;SDS011;45839;44.882;20.650;2023-05-10T11:07:22;10.95;;;4.85;;
59978;SDS011;45839;44.882;20.650;2023-05-10T11:09:48;7.07;;;2.95;;
59978;SDS011;45839;44.882;20.650;2023-05-10T11:12:14;7.03;;;3.10;;
59978;SDS011;45839;44.882;20.650;2023-05-10T11:14:40;9.50;;;5.10;;
59978;SDS011;45839;44.882;20.650;2023-05-10T11:17:22;10.57;;;4.40;;
59978;SDS011;45839;44.882;20.650;2023-05-10T11:20:07;13.93;;;8.82;;
59978;SDS011;45839;44.882;20.650;2023-05-10T11:22:50;15.48;;;9.00;;
59978;SDS011;45839;44.882;20.650;2023-05-10T11:25:16;11.13;;;4.20;;
59978;SDS011;45839;44.882;20.650;2023-05-10T11:27:42;10.77;;;4.15;;
59978;SDS011;45839;44.882;20.650;2023-05-10T11:30:09;10.32;;;3.72;;
59978;SDS011;45839;44.882;20.650;2023-05-10T11:32:37;8.45;;;3.88;;
59978;SDS011;45839;44.882;20.650;2023-05-10T11:35:07;6.97;;;3.58;;
59978;SDS011;45839;44.882;20.650;2023-05-10T11:37:33;7.60;;;3.30;;
59978;SDS011;45839;44.882;20.650;2023-05-10T11:39:59;6.47;;;2.28;;
59978;SDS011;45839;44.882;20.650;2023-05-10T11:42:27;12.50;;;3.63;;
59978;SDS011;45839;44.882;20.650;2023-05-10T11:44:53;7.60;;;2.92;;
59978;SDS011;45839;44.882;20.650;2023-05-10T11:47:19;9.90;;;4.03;;
59978;SDS011;45839;44.882;20.650;2023-05-10T11:49:46;9.25;;;4.75;;
59978;SDS011;45839;44.882;20.650;2023-05-10T11:52:12;7.22;;;3.38;;
59978;SDS011;45839;44.882;20.650;2023-05-10T11:54:44;9.18;;;5.20;;
59978;SDS011;45839;44.882;20.650;2023-05-10T11:57:11;7.40;;;3.47;;
59978;SDS011;45839;44.882;20.650;2023-05-10T11:59:37;6.68;;;2.70;;
59978;SDS011;45839;44.882;20.650;2023-05-10T12:02:03;8.15;;;4.50;;
59978;SDS011;45839;44.882;20.650;2023-05-10T12:04:30;7.53;;;3.00;;
59978;SDS011;45839;44.882;20.650;2023-05-10T12:06:56;9.50;;;5.22;;
59978;SDS011;45839;44.882;20.650;2023-05-10T12:09:22;7.78;;;4.13;;
59978;SDS011;45839;44.882;20.650;2023-05-10T12:11:48;13.88;;;3.53;;
59978;SDS011;45839;44.882;20.650;2023-05-10T12:14:15;12.98;;;3.58;;
59978;SDS011;45839;44.882;20.650;2023-05-10T12:16:42;19.88;;;5.57;;
59978;SDS011;45839;44.882;20.650;2023-05-10T12:19:08;8.77;;;3.15;;
59978;SDS011;45839;44.882;20.650;2023-05-10T12:21:37;12.70;;;5.38;;
59978;SDS011;45839;44.882;20.650;2023-05-10T12:24:06;11.50;;;4.10;;
59978;SDS011;45839;44.882;20.650;2023-05-10T12:26:33;9.00;;;4.85;;
59978;SDS011;45839;44.882;20.650;2023-05-10T12:31:52;6.03;;;2.20;;
59978;SDS011;45839;44.882;20.650;2023-05-10T12:36:54;15.50;;;10.13;;
59978;SDS011;45839;44.882;20.650;2023-05-10T12:39:20;6.85;;;3.08;;
59978;SDS011;45839;44.882;20.650;2023-05-10T12:41:46;10.85;;;3.30;;
59978;SDS011;45839;44.882;20.650;2023-05-10T12:44:12;9.48;;;5.63;;
59978;SDS011;45839;44.882;20.650;2023-05-10T12:46:38;5.78;;;2.30;;
59978;SDS011;45839;44.882;20.650;2023-05-10T12:49:04;13.73;;;9.95;;
59978;SDS011;45839;44.882;20.650;2023-05-10T12:51:31;9.43;;;5.45;;
59978;SDS011;45839;44.882;20.650;2023-05-10T12:53:57;8.73;;;5.85;;
59978;SDS011;45839;44.882;20.650;2023-05-10T12:56:23;10.32;;;5.65;;
59978;SDS011;45839;44.882;20.650;2023-05-10T12:58:49;11.07;;;5.68;;
59978;SDS011;45839;44.882;20.650;2023-05-10T13:01:15;4.40;;;2.33;;
59978;SDS011;45839;44.882;20.650;2023-05-10T13:03:41;7.72;;;3.83;;
59978;SDS011;45839;44.882;20.650;2023-05-10T13:06:10;7.18;;;4.03;;
59978;SDS011;45839;44.882;20.650;2023-05-10T13:08:38;13.02;;;5.35;;
59978;SDS011;45839;44.882;20.650;2023-05-10T13:11:05;5.43;;;2.50;;
59978;SDS011;45839;44.882;20.650;2023-05-10T13:13:31;10.82;;;8.38;;
59978;SDS011;45839;44.882;20.650;2023-05-10T13:15:57;8.00;;;3.38;;
59978;SDS011;45839;44.882;20.650;2023-05-10T13:18:23;8.13;;;4.45;;
59978;SDS011;45839;44.882;20.650;2023-05-10T13:20:49;6.18;;;2.95;;
59978;SDS011;45839;44.882;20.650;2023-05-10T13:23:15;6.75;;;1.90;;
59978;SDS011;45839;44.882;20.650;2023-05-10T13:25:41;6.35;;;2.97;;
59978;SDS011;45839;44.882;20.650;2023-05-10T13:28:07;5.55;;;3.08;;
59978;SDS011;45839;44.882;20.650;2023-05-10T13:30:33;6.25;;;3.00;;
59978;SDS011;45839;44.882;20.650;2023-05-10T13:33:00;8.23;;;4.50;;
59978;SDS011;45839;44.882;20.650;2023-05-10T13:35:26;6.68;;;2.85;;
59978;SDS011;45839;44.882;20.650;2023-05-10T13:37:52;8.38;;;2.97;;
59978;SDS011;45839;44.882;20.650;2023-05-10T13:40:18;5.43;;;2.45;;
59978;SDS011;45839;44.882;20.650;2023-05-10T13:42:44;6.25;;;3.85;;
59978;SDS011;45839;44.882;20.650;2023-05-10T13:45:11;4.80;;;2.50;;
59978;SDS011;45839;44.882;20.650;2023-05-10T13:47:38;8.18;;;3.30;;
59978;SDS011;45839;44.882;20.650;2023-05-10T13:50:04;7.68;;;2.60;;
59978;SDS011;45839;44.882;20.650;2023-05-10T13:52:30;7.88;;;3.88;;
59978;SDS011;45839;44.882;20.650;2023-05-10T13:54:56;6.20;;;1.70;;
59978;SDS011;45839;44.882;20.650;2023-05-10T13:57:22;7.78;;;4.28;;
59978;SDS011;45839;44.882;20.650;2023-05-10T13:59:49;6.40;;;3.85;;
59978;SDS011;45839;44.882;20.650;2023-05-10T14:02:15;9.40;;;1.95;;
59978;SDS011;45839;44.882;20.650;2023-05-10T14:04:41;4.88;;;2.00;;
59978;SDS011;45839;44.882;20.650;2023-05-10T14:07:07;6.30;;;3.90;;
59978;SDS011;45839;44.882;20.650;2023-05-10T14:09:33;5.65;;;2.92;;
59978;SDS011;45839;44.882;20.650;2023-05-10T14:11:59;7.07;;;4.75;;
59978;SDS011;45839;44.882;20.650;2023-05-10T14:14:25;8.35;;;5.65;;
59978;SDS011;45839;44.882;20.650;2023-05-10T14:16:51;5.40;;;2.72;;
59978;SDS011;45839;44.882;20.650;2023-05-10T14:19:17;6.28;;;3.53;;
59978;SDS011;45839;44.882;20.650;2023-05-10T14:21:44;5.28;;;2.85;;
59978;SDS011;45839;44.882;20.650;2023-05-10T14:24:10;4.50;;;2.13;;
59978;SDS011;45839;44.882;20.650;2023-05-10T14:26:36;7.97;;;3.47;;
59978;SDS011;45839;44.882;20.650;2023-05-10T14:29:02;5.13;;;2.10;;
59978;SDS011;45839;44.882;20.650;2023-05-10T14:31:28;6.55;;;2.72;;
59978;SDS011;45839;44.882;20.650;2023-05-10T14:33:55;4.43;;;1.90;;
59978;SDS011;45839;44.882;20.650;2023-05-10T14:36:22;6.13;;;2.42;;
59978;SDS011;45839;44.882;20.650;2023-05-10T14:38:48;5.65;;;2.38;;
59978;SDS011;45839;44.882;20.650;2023-05-10T14:41:15;5.80;;;1.70;;
59978;SDS011;45839;44.882;20.650;2023-05-10T14:43:42;4.57;;;1.60;;
59978;SDS011;45839;44.882;20.650;2023-05-10T14:46:08;5.72;;;2.40;;
59978;SDS011;45839;44.882;20.650;2023-05-10T14:48:34;8.40;;;1.92;;
59978;SDS011;45839;44.882;20.650;2023-05-10T14:51:01;5.18;;;2.00;;
59978;SDS011;45839;44.882;20.650;2023-05-10T14:53:27;6.63;;;2.53;;
59978;SDS011;45839;44.882;20.650;2023-05-10T14:55:53;4.43;;;2.10;;
59978;SDS011;45839;44.882;20.650;2023-05-10T14:58:19;3.95;;;1.40;;
59978;SDS011;45839;44.882;20.650;2023-05-10T15:00:45;2.10;;;1.25;;
59978;SDS011;45839;44.882;20.650;2023-05-10T15:03:11;3.72;;;1.50;;